createdAt,value
2022-08-22T00:00:34.847Z,98416.06
2022-08-22T00:05:47.879Z,98417.25
2022-08-22T00:10:58.326Z,98412.22
2022-08-22T00:16:08.931Z,98410.59
2022-08-22T00:21:14.985Z,98423.19
2022-08-22T00:26:31.971Z,98422.56
2022-08-22T00:31:40.802Z,98413.03
2022-08-22T00:36:48.938Z,98409.66
2022-08-22T00:42:31.646Z,98398.13
2022-08-22T00:47:57.047Z,98403.00
2022-08-22T00:53:15.357Z,98393.09
2022-08-22T00:58:46.268Z,98389.56
2022-08-22T01:04:06.803Z,98392.13
2022-08-22T01:09:21.205Z,98397.72
2022-08-22T01:14:39.547Z,98390.03
2022-08-22T01:20:20.074Z,98381.16
2022-08-22T01:25:59.468Z,98384.91
2022-08-22T01:31:43.133Z,98377.69
2022-08-22T01:37:25.239Z,98376.66
2022-08-22T01:43:01.696Z,98377.91
2022-08-22T01:48:12.370Z,98372.38
2022-08-22T01:53:24.587Z,98369.16
2022-08-22T01:58:29.845Z,98366.94
2022-08-22T02:03:36.397Z,98375.38
2022-08-22T02:08:48.176Z,98369.16
2022-08-22T02:13:57.001Z,98367.47
2022-08-22T02:19:08.427Z,98366.28
2022-08-22T02:24:26.075Z,98362.94
2022-08-22T02:29:35.441Z,98370.47
2022-08-22T02:34:43.605Z,98369.47
2022-08-22T02:39:54.691Z,98372.16
2022-08-22T02:45:04.393Z,98367.94
2022-08-22T02:50:20.009Z,98361.22
2022-08-22T02:55:36.239Z,98360.53
2022-08-22T03:00:47.193Z,98360.47
2022-08-22T03:06:03.319Z,98362.66
2022-08-22T03:11:16.695Z,98353.38
2022-08-22T03:16:27.129Z,98357.72
2022-08-22T03:21:36.873Z,98349.31
2022-08-22T03:26:47.206Z,98348.44
2022-08-22T03:32:11.235Z,98344.75
2022-08-22T03:37:19.361Z,98336.66
2022-08-22T03:43:08.417Z,98336.59
2022-08-22T03:48:58.291Z,98328.50
2022-08-22T03:54:38.720Z,98322.25
2022-08-22T04:00:02.782Z,98336.66
2022-08-22T04:05:45.237Z,98338.66
2022-08-22T04:11:23.387Z,98334.28
2022-08-22T04:16:51.597Z,98341.13
2022-08-22T04:22:22.789Z,98350.88
2022-08-22T04:27:30.657Z,98348.31
2022-08-22T04:32:38.713Z,98350.00
2022-08-22T04:37:48.411Z,98345.13
2022-08-22T04:42:55.149Z,98346.34
2022-08-22T04:48:06.023Z,98348.59
2022-08-22T04:53:50.026Z,98346.81
2022-08-22T04:58:59.173Z,98346.63
2022-08-22T05:04:07.466Z,98344.13
2022-08-22T05:09:16.322Z,98359.63
2022-08-22T05:14:24.583Z,98348.22
2022-08-22T05:19:33.194Z,98340.53
2022-08-22T05:24:42.320Z,98349.13
2022-08-22T05:29:49.657Z,98353.50
2022-08-22T05:34:58.827Z,98360.56
2022-08-22T05:40:03.595Z,98363.56
2022-08-22T05:45:12.040Z,98366.13
2022-08-22T05:50:18.253Z,98364.47
2022-08-22T05:55:29.085Z,98375.03
2022-08-22T06:00:39.044Z,98370.63
2022-08-22T06:05:45.304Z,98381.38
2022-08-22T06:10:54.188Z,98373.88
2022-08-22T06:16:08.305Z,98374.88
2022-08-22T06:21:19.073Z,98379.41
2022-08-22T06:26:25.653Z,98383.13
2022-08-22T06:31:32.617Z,98378.84
2022-08-22T06:36:38.244Z,98377.31
2022-08-22T06:41:48.093Z,98381.06
2022-08-22T06:46:55.110Z,98393.00
2022-08-22T06:52:02.382Z,98391.50
2022-08-22T06:57:11.313Z,98403.50
2022-08-22T07:02:24.348Z,98398.00
2022-08-22T07:07:29.335Z,98401.56
2022-08-22T07:12:37.974Z,98403.78
2022-08-22T07:17:50.579Z,98401.53
2022-08-22T07:22:58.260Z,98400.94
2022-08-22T07:28:16.294Z,98409.38
2022-08-22T07:33:42.219Z,98397.59
2022-08-22T07:38:53.318Z,98391.88
2022-08-22T07:44:10.820Z,98396.22
2022-08-22T07:49:21.758Z,98398.28
2022-08-22T07:54:32.864Z,98392.66
2022-08-22T07:59:40.868Z,98401.72
2022-08-22T08:04:44.603Z,98406.94
2022-08-22T08:09:53.334Z,98405.34
2022-08-22T08:14:58.745Z,98405.53
2022-08-22T08:20:06.979Z,98409.50
2022-08-22T08:25:14.723Z,98421.47
2022-08-22T08:30:21.330Z,98414.31
2022-08-22T08:35:28.884Z,98415.78
2022-08-22T08:40:57.298Z,98407.56
2022-08-22T08:46:26.445Z,98402.41
2022-08-22T08:51:54.493Z,98405.63
2022-08-22T08:57:11.761Z,98403.69
2022-08-22T09:02:44.243Z,98405.53
2022-08-22T09:08:11.751Z,98392.38
2022-08-22T09:13:42.479Z,98387.03
2022-08-22T09:19:23.172Z,98380.22
2022-08-22T09:24:52.431Z,98379.03
2022-08-22T09:30:04.723Z,98372.16
2022-08-22T09:35:17.427Z,98371.69
2022-08-22T09:40:28.757Z,98367.03
2022-08-22T09:45:52.976Z,98368.00
2022-08-22T09:51:31.691Z,98356.31
2022-08-22T09:56:39.260Z,98353.84
2022-08-22T10:01:55.145Z,98352.06
2022-08-22T10:07:11.861Z,98350.72
2022-08-22T10:12:20.351Z,98356.06
2022-08-22T10:17:32.586Z,98355.22
2022-08-22T10:22:44.562Z,98345.66
2022-08-22T10:27:56.536Z,98343.84
2022-08-22T10:33:07.843Z,98336.34
2022-08-22T10:38:25.104Z,98321.19
2022-08-22T10:43:40.837Z,98320.22
2022-08-22T10:48:52.564Z,98321.63
2022-08-22T10:54:12.089Z,98310.47
2022-08-22T10:59:27.237Z,98319.47
2022-08-22T11:04:46.968Z,98307.59
2022-08-22T11:09:58.117Z,98308.63
2022-08-22T11:15:12.948Z,98308.91
2022-08-22T11:20:21.986Z,98307.03
2022-08-22T11:25:41.253Z,98301.72
2022-08-22T11:30:54.610Z,98298.16
2022-08-22T11:36:11.697Z,98304.66
2022-08-22T11:41:21.611Z,98289.91
2022-08-22T11:46:30.470Z,98299.69
2022-08-22T11:51:57.252Z,98296.69
2022-08-22T11:57:08.488Z,98294.72
2022-08-22T12:02:19.880Z,98275.44
2022-08-22T12:07:29.333Z,98277.69
2022-08-22T12:12:43.611Z,98276.75
2022-08-22T12:18:21.121Z,98276.59
2022-08-22T12:23:49.737Z,98274.97
2022-08-22T12:29:15.439Z,98270.84
2022-08-22T12:34:27.943Z,98260.31
2022-08-22T12:40:15.968Z,98264.78
2022-08-22T12:45:33.526Z,98260.72
2022-08-22T12:50:44.789Z,98254.84
2022-08-22T12:56:03.171Z,98251.03
2022-08-22T13:01:10.011Z,98234.75
2022-08-22T13:06:54.295Z,98236.47
2022-08-22T13:12:05.243Z,98235.50
2022-08-22T13:17:24.238Z,98241.59
2022-08-22T13:22:31.744Z,98230.28
2022-08-22T13:27:51.146Z,98232.28
2022-08-22T13:33:02.753Z,98232.25
2022-08-22T13:38:12.349Z,98218.13
2022-08-22T13:43:21.601Z,98216.94
2022-08-22T13:48:32.349Z,98209.78
2022-08-22T13:53:50.047Z,98213.31
2022-08-22T13:59:25.316Z,98207.91
2022-08-22T14:04:43.839Z,98203.72
2022-08-22T14:09:55.751Z,98211.38
2022-08-22T14:15:01.151Z,98204.66
2022-08-22T14:20:12.601Z,98202.81
2022-08-22T14:25:21.433Z,98197.34
2022-08-22T14:30:27.821Z,98206.75
2022-08-22T14:35:37.652Z,98204.94
2022-08-22T14:40:42.091Z,98198.69
2022-08-22T14:45:54.823Z,98201.19
2022-08-22T15:04:26.459Z,98197.69
2022-08-22T15:09:36.107Z,98191.31
2022-08-22T15:14:52.157Z,98170.81
2022-08-22T15:20:10.754Z,98161.47
2022-08-22T15:25:18.279Z,98167.53
2022-08-22T15:30:34.778Z,98158.72
2022-08-22T15:35:39.939Z,98159.81
2022-08-22T15:40:44.030Z,98148.56
2022-08-22T15:45:49.924Z,98149.94
2022-08-22T15:51:01.571Z,98144.09
2022-08-22T15:56:28.130Z,98138.28
2022-08-22T16:01:43.626Z,98147.00
2022-08-22T16:06:57.978Z,98133.94
2022-08-22T16:12:05.464Z,98128.44
2022-08-22T16:17:53.185Z,98127.34
2022-08-22T16:23:09.891Z,98130.09
2022-08-22T16:28:54.215Z,98140.91
2022-08-22T16:33:49.011Z,98131.13
2022-08-22T16:38:56.569Z,98135.13
2022-08-22T16:44:23.208Z,98129.78
2022-08-22T16:49:29.954Z,98122.06
2022-08-22T16:54:46.183Z,98131.44
2022-08-22T17:00:01.283Z,98133.69
2022-08-22T17:05:20.971Z,98133.69
2022-08-22T17:10:37.877Z,98134.00
2022-08-22T17:15:57.451Z,98134.31
2022-08-22T17:21:10.071Z,98134.53
2022-08-22T17:26:27.285Z,98139.34
2022-08-22T17:31:35.785Z,98133.66
2022-08-22T17:36:53.080Z,98138.84
2022-08-22T17:42:10.242Z,98143.75
2022-08-22T17:47:31.913Z,98142.84
2022-08-22T17:52:42.577Z,98141.53
2022-08-22T17:57:52.326Z,98142.84
2022-08-22T18:03:02.023Z,98144.78
2022-08-22T18:08:37.517Z,98149.16
2022-08-22T18:13:43.097Z,98148.91
2022-08-22T18:18:54.477Z,98154.63
2022-08-22T18:24:01.946Z,98153.28
2022-08-22T18:29:12.669Z,98153.00
2022-08-22T18:34:23.931Z,98153.00
2022-08-22T18:39:30.740Z,98150.09
2022-08-22T18:44:37.138Z,98155.06
2022-08-22T18:49:53.952Z,98156.69
2022-08-22T18:55:04.669Z,98162.06
2022-08-22T19:00:13.999Z,98159.06
2022-08-22T19:05:47.230Z,98169.22
2022-08-22T19:10:56.548Z,98169.38
2022-08-22T19:16:15.259Z,98170.75
2022-08-22T19:21:39.035Z,98181.13
2022-08-22T19:26:44.793Z,98185.22
2022-08-22T19:31:51.607Z,98186.78
2022-08-22T19:37:30.729Z,98189.59
2022-08-22T19:42:40.119Z,98189.50
2022-08-22T19:47:53.667Z,98196.31
2022-08-22T19:53:07.549Z,98192.03
2022-08-22T19:58:31.915Z,98191.31
2022-08-22T20:03:48.618Z,98189.09
2022-08-22T20:09:03.914Z,98196.75
2022-08-22T20:14:30.576Z,98197.28
2022-08-22T20:19:41.829Z,98199.25
2022-08-22T20:24:49.113Z,98202.88
2022-08-22T20:30:00.262Z,98194.09
2022-08-22T20:35:05.921Z,98197.94
2022-08-22T20:40:51.802Z,98197.50
2022-08-22T20:45:58.200Z,98201.75
2022-08-22T20:51:05.619Z,98204.72
2022-08-22T20:56:09.589Z,98206.03
2022-08-22T21:01:15.323Z,98191.00
2022-08-22T21:06:22.628Z,98193.53
2022-08-22T21:11:43.399Z,98198.13
2022-08-22T21:16:46.130Z,98193.75
2022-08-22T21:21:50.189Z,98194.59
2022-08-22T21:26:59.681Z,98198.16
2022-08-22T21:32:16.884Z,98205.06
2022-08-22T21:37:28.099Z,98199.00
2022-08-22T21:42:35.445Z,98210.06
2022-08-22T21:47:40.979Z,98211.13
2022-08-22T21:53:00.868Z,98210.88
2022-08-22T21:58:10.554Z,98210.00
2022-08-22T22:03:16.790Z,98218.56
2022-08-22T22:08:20.882Z,98224.16
2022-08-22T22:13:24.576Z,98226.88
2022-08-22T22:18:34.086Z,98229.34
2022-08-22T22:23:38.183Z,98240.19
2022-08-22T22:28:47.314Z,98239.81
2022-08-22T22:33:50.044Z,98252.69
2022-08-22T22:38:55.045Z,98257.31
2022-08-22T22:43:58.518Z,98255.66
2022-08-22T22:49:01.241Z,98254.00
2022-08-22T22:54:05.487Z,98255.22
2022-08-22T22:59:13.052Z,98264.38
2022-08-22T23:04:17.620Z,98264.59
2022-08-22T23:09:21.786Z,98262.91
2022-08-22T23:14:31.541Z,98270.41
2022-08-22T23:19:34.326Z,98280.00
2022-08-22T23:24:40.310Z,98296.91
2022-08-22T23:29:43.530Z,98292.31
2022-08-22T23:34:48.785Z,98288.97
2022-08-22T23:39:52.899Z,98289.38
2022-08-22T23:44:55.852Z,98287.19
2022-08-22T23:49:58.594Z,98286.06
2022-08-22T23:55:09.438Z,98291.41
